createdAt,value
2022-09-21T00:01:21.765Z,7.00
2022-09-21T00:04:10.785Z,7.00
2022-09-21T00:06:59.446Z,7.00
2022-09-21T00:09:48.111Z,7.00
2022-09-21T00:12:38.740Z,7.10
2022-09-21T00:15:28.121Z,7.00
2022-09-21T00:18:17.485Z,7.00
2022-09-21T00:21:09.134Z,7.00
2022-09-21T00:23:59.278Z,7.00
2022-09-21T00:26:47.951Z,7.00
2022-09-21T00:29:38.011Z,6.90
2022-09-21T00:32:26.889Z,7.00
2022-09-21T00:35:15.508Z,7.00
2022-09-21T00:38:04.514Z,6.90
2022-09-21T00:40:53.198Z,6.80
2022-09-21T00:43:47.156Z,6.80
2022-09-21T00:46:40.349Z,6.80
2022-09-21T00:49:29.904Z,6.70
2022-09-21T00:52:20.806Z,6.80
2022-09-21T00:55:14.668Z,6.80
2022-09-21T00:58:10.332Z,6.70
2022-09-21T01:01:00.834Z,6.70
2022-09-21T01:03:53.506Z,6.80
2022-09-21T01:06:43.019Z,6.80
2022-09-21T01:09:32.011Z,6.80
2022-09-21T01:12:36.422Z,6.70
2022-09-21T01:15:35.776Z,6.70
2022-09-21T01:18:32.364Z,6.70
2022-09-21T01:21:24.677Z,6.70
2022-09-21T01:24:42.121Z,6.70
2022-09-21T01:27:53.821Z,6.70
2022-09-21T01:30:48.949Z,6.80
2022-09-21T01:33:41.100Z,6.80
2022-09-21T01:36:33.730Z,6.80
2022-09-21T01:39:24.322Z,6.80
2022-09-21T01:42:16.042Z,6.90
2022-09-21T01:45:08.307Z,6.80
2022-09-21T01:48:00.803Z,6.80
2022-09-21T01:50:54.878Z,6.70
2022-09-21T01:53:49.184Z,6.80
2022-09-21T01:56:40.552Z,6.70
2022-09-21T01:59:35.169Z,6.70
2022-09-21T02:02:32.107Z,6.70
2022-09-21T02:05:25.208Z,6.70
2022-09-21T02:08:14.224Z,6.70
2022-09-21T02:11:04.377Z,6.70
2022-09-21T02:13:56.226Z,6.70
2022-09-21T02:16:56.478Z,6.70
2022-09-21T02:19:50.323Z,6.60
2022-09-21T02:22:49.516Z,6.70
2022-09-21T02:25:47.518Z,6.60
2022-09-21T02:28:44.851Z,6.60
2022-09-21T02:31:42.349Z,6.60
2022-09-21T02:34:35.970Z,6.60
2022-09-21T02:37:31.307Z,6.60
2022-09-21T02:40:27.256Z,6.60
2022-09-21T02:43:21.711Z,6.60
2022-09-21T02:46:16.137Z,6.60
2022-09-21T02:49:09.267Z,6.60
2022-09-21T02:52:01.702Z,6.60
2022-09-21T02:54:53.426Z,6.60
2022-09-21T02:57:44.221Z,6.60
2022-09-21T03:00:33.152Z,6.60
2022-09-21T03:03:23.308Z,6.60
2022-09-21T03:06:12.159Z,6.60
2022-09-21T03:09:00.871Z,6.60
2022-09-21T03:11:49.686Z,6.50
2022-09-21T03:14:39.813Z,6.50
2022-09-21T03:17:28.754Z,6.40
2022-09-21T03:20:17.616Z,6.30
2022-09-21T03:23:06.431Z,6.30
2022-09-21T03:25:55.293Z,6.20
2022-09-21T03:28:44.134Z,6.20
2022-09-21T03:31:34.692Z,6.20
2022-09-21T03:34:23.459Z,6.20
2022-09-21T03:37:12.473Z,6.20
2022-09-21T03:40:01.173Z,6.20
2022-09-21T03:42:49.821Z,6.20
2022-09-21T03:45:41.060Z,6.20
2022-09-21T03:48:32.718Z,6.20
2022-09-21T03:51:21.401Z,6.20
2022-09-21T03:54:10.332Z,6.20
2022-09-21T03:56:58.998Z,6.20
2022-09-21T03:59:47.710Z,6.30
2022-09-21T04:02:36.684Z,6.30
2022-09-21T04:05:27.856Z,6.30
2022-09-21T04:08:16.493Z,6.20
2022-09-21T04:11:11.972Z,6.20
2022-09-21T04:14:00.767Z,6.00
2022-09-21T04:16:49.900Z,6.00
2022-09-21T04:19:38.676Z,5.90
2022-09-21T04:22:28.869Z,5.80
2022-09-21T04:25:17.685Z,5.70
2022-09-21T04:28:06.343Z,5.70
2022-09-21T04:30:55.911Z,5.60
2022-09-21T04:33:44.574Z,5.60
2022-09-21T04:36:36.623Z,5.60
2022-09-21T04:39:27.449Z,5.60
2022-09-21T04:42:16.183Z,5.60
2022-09-21T04:45:05.410Z,5.60
2022-09-21T04:47:54.038Z,5.60
2022-09-21T04:50:42.802Z,5.60
2022-09-21T04:53:31.772Z,5.60
2022-09-21T04:56:21.857Z,5.60
2022-09-21T04:59:10.806Z,5.60
2022-09-21T05:01:59.525Z,5.60
2022-09-21T05:04:50.947Z,5.50
2022-09-21T05:07:39.963Z,5.40
2022-09-21T05:10:28.774Z,5.40
2022-09-21T05:13:19.890Z,5.40
2022-09-21T05:16:09.212Z,5.40
2022-09-21T05:18:58.076Z,5.30
2022-09-21T05:21:46.816Z,5.20
2022-09-21T05:24:35.488Z,5.10
2022-09-21T05:27:24.224Z,5.10
2022-09-21T05:30:16.030Z,5.10
2022-09-21T05:33:06.134Z,5.10
2022-09-21T05:36:04.049Z,5.10
2022-09-21T05:38:53.130Z,5.10
2022-09-21T05:41:42.427Z,5.30
2022-09-21T05:44:31.562Z,5.30
2022-09-21T05:47:27.657Z,5.40
2022-09-21T05:50:34.831Z,5.50
2022-09-21T05:53:36.055Z,5.60
2022-09-21T05:56:38.943Z,5.80
2022-09-21T05:59:41.692Z,5.90
2022-09-21T06:02:59.557Z,6.10
2022-09-21T06:05:48.219Z,6.30
2022-09-21T06:08:37.085Z,6.60
2022-09-21T06:11:25.900Z,6.80
2022-09-21T06:14:14.580Z,7.10
2022-09-21T06:17:04.395Z,7.20
2022-09-21T06:19:54.451Z,7.30
2022-09-21T06:22:43.208Z,7.50
2022-09-21T06:25:31.983Z,7.60
2022-09-21T06:28:20.775Z,7.70
2022-09-21T06:31:09.522Z,7.80
2022-09-21T06:33:58.335Z,7.80
2022-09-21T06:36:48.413Z,8.00
2022-09-21T06:39:37.113Z,8.00
2022-09-21T06:42:25.758Z,8.10
2022-09-21T06:45:14.648Z,8.10
2022-09-21T06:48:03.726Z,8.20
2022-09-21T06:50:52.777Z,8.20
2022-09-21T06:53:42.879Z,8.30
2022-09-21T06:56:31.560Z,8.40
2022-09-21T06:59:20.474Z,8.50
2022-09-21T07:02:11.660Z,8.80
2022-09-21T07:05:00.373Z,9.30
2022-09-21T07:07:53.738Z,10.00
2022-09-21T07:10:44.233Z,10.30
2022-09-21T07:13:33.116Z,10.30
2022-09-21T07:16:22.062Z,10.10
2022-09-21T07:19:11.787Z,10.00
2022-09-21T07:22:00.851Z,10.00
2022-09-21T07:24:49.502Z,9.90
2022-09-21T07:27:39.623Z,9.70
2022-09-21T07:30:28.687Z,9.50
2022-09-21T07:33:17.355Z,9.40
2022-09-21T07:36:10.649Z,9.40
2022-09-21T07:38:59.419Z,9.50
2022-09-21T07:41:48.056Z,9.60
2022-09-21T07:44:38.134Z,9.60
2022-09-21T07:47:27.988Z,9.60
2022-09-21T07:50:16.855Z,9.60
2022-09-21T07:53:05.605Z,9.50
2022-09-21T07:55:54.234Z,9.40
2022-09-21T07:59:00.830Z,9.30
2022-09-21T08:01:50.958Z,9.20
2022-09-21T08:04:39.690Z,9.20
2022-09-21T08:07:29.068Z,9.20
2022-09-21T08:10:17.869Z,9.20
2022-09-21T08:13:07.280Z,9.30
2022-09-21T08:15:59.689Z,9.40
2022-09-21T08:18:50.403Z,9.50
2022-09-21T08:21:39.022Z,9.60
2022-09-21T08:24:27.797Z,9.60
2022-09-21T08:27:16.516Z,9.50
2022-09-21T08:30:06.141Z,9.50
2022-09-21T08:32:56.227Z,9.50
2022-09-21T08:35:53.505Z,9.50
2022-09-21T08:38:42.227Z,9.60
2022-09-21T08:41:52.435Z,9.60
2022-09-21T08:44:44.370Z,9.70
2022-09-21T08:47:39.759Z,9.90
2022-09-21T08:50:33.923Z,10.20
2022-09-21T08:53:31.929Z,10.40
2022-09-21T08:56:22.797Z,10.40
2022-09-21T08:59:15.551Z,10.50
2022-09-21T09:02:22.996Z,10.50
2022-09-21T09:05:29.468Z,10.60
2022-09-21T09:08:40.558Z,10.60
2022-09-21T09:11:44.074Z,10.70
2022-09-21T09:14:50.364Z,10.80
2022-09-21T09:17:49.361Z,10.90
2022-09-21T09:20:41.250Z,10.90
2022-09-21T09:23:35.012Z,11.00
2022-09-21T09:26:31.010Z,10.90
2022-09-21T09:29:28.221Z,11.00
2022-09-21T09:32:19.015Z,11.20
2022-09-21T09:35:20.030Z,11.90
2022-09-21T09:38:19.060Z,12.20
2022-09-21T09:41:31.436Z,12.30
2022-09-21T09:44:34.890Z,12.20
2022-09-21T09:47:36.134Z,12.20
2022-09-21T09:50:29.707Z,12.20
2022-09-21T09:53:21.589Z,12.40
2022-09-21T09:56:12.160Z,12.50
2022-09-21T09:59:08.356Z,12.80
2022-09-21T10:02:05.831Z,12.90
2022-09-21T10:05:03.808Z,12.90
2022-09-21T10:07:53.679Z,12.90
2022-09-21T10:10:43.290Z,12.80
2022-09-21T10:13:34.191Z,12.70
2022-09-21T10:16:25.012Z,12.60
2022-09-21T10:19:18.638Z,12.40
2022-09-21T10:22:07.554Z,12.20
2022-09-21T10:24:59.196Z,12.10
2022-09-21T10:27:51.417Z,12.00
2022-09-21T10:30:41.478Z,11.90
2022-09-21T10:33:32.154Z,11.90
2022-09-21T10:36:29.756Z,11.90
2022-09-21T10:39:21.132Z,12.00
2022-09-21T10:42:15.995Z,12.00
2022-09-21T10:45:15.274Z,12.10
2022-09-21T10:48:10.812Z,12.10
2022-09-21T10:51:01.148Z,12.00
2022-09-21T10:53:53.843Z,12.00
2022-09-21T10:56:53.757Z,12.00
2022-09-21T10:59:42.542Z,12.00
2022-09-21T11:02:39.249Z,12.10
2022-09-21T11:05:30.971Z,12.20
2022-09-21T11:08:25.453Z,12.30
2022-09-21T11:11:30.663Z,12.30
2022-09-21T11:14:29.039Z,12.40
2022-09-21T11:17:27.077Z,12.50
2022-09-21T11:20:23.872Z,12.40
2022-09-21T11:23:26.881Z,12.40
2022-09-21T11:26:22.904Z,12.40
2022-09-21T11:29:18.205Z,12.30
2022-09-21T11:32:23.853Z,12.40
2022-09-21T11:35:33.248Z,12.50
2022-09-21T11:38:38.788Z,12.70
2022-09-21T11:41:57.487Z,13.00
2022-09-21T11:44:55.625Z,13.20
2022-09-21T11:47:59.592Z,13.20
2022-09-21T11:50:58.247Z,13.00
2022-09-21T11:54:05.883Z,13.10
2022-09-21T11:56:59.849Z,13.20
2022-09-21T12:00:02.231Z,13.30
2022-09-21T12:03:32.219Z,13.20
2022-09-21T12:06:36.948Z,13.20
2022-09-21T12:09:44.038Z,13.20
2022-09-21T12:12:41.942Z,13.00
2022-09-21T12:15:40.086Z,13.20
2022-09-21T12:18:35.661Z,13.60
2022-09-21T12:21:27.118Z,13.60
2022-09-21T12:24:19.072Z,13.30
2022-09-21T12:27:17.244Z,13.00
2022-09-21T12:30:13.397Z,12.80
2022-09-21T12:33:07.449Z,12.90
2022-09-21T12:36:03.477Z,13.10
2022-09-21T12:38:56.886Z,13.40
2022-09-21T12:41:53.893Z,13.60
2022-09-21T12:44:56.006Z,13.60
2022-09-21T12:48:06.472Z,13.30
2022-09-21T12:51:03.686Z,13.10
2022-09-21T12:53:56.425Z,13.00
2022-09-21T12:56:49.995Z,12.90
2022-09-21T12:59:44.267Z,13.00
2022-09-21T13:02:38.547Z,13.40
2022-09-21T13:05:37.874Z,13.90
2022-09-21T13:08:30.197Z,14.30
2022-09-21T13:11:24.179Z,14.60
2022-09-21T13:14:14.675Z,14.50
2022-09-21T13:17:05.844Z,14.00
2022-09-21T13:20:01.784Z,13.80
2022-09-21T13:22:53.280Z,13.50
2022-09-21T13:25:42.053Z,13.40
2022-09-21T13:29:09.847Z,13.30
2022-09-21T13:32:00.758Z,13.20
2022-09-21T13:34:51.818Z,13.00
2022-09-21T13:37:41.956Z,13.10
2022-09-21T13:40:36.227Z,13.30
2022-09-21T13:43:46.501Z,13.60
2022-09-21T13:46:54.768Z,14.00
2022-09-21T13:49:47.182Z,14.40
2022-09-21T13:52:45.306Z,14.80
2022-09-21T13:55:38.419Z,15.10
2022-09-21T13:58:29.592Z,15.30
2022-09-21T14:01:45.347Z,15.60
2022-09-21T14:04:37.290Z,15.40
2022-09-21T14:07:31.911Z,14.90
2022-09-21T14:10:24.443Z,14.60
2022-09-21T14:13:37.086Z,14.30
2022-09-21T14:16:55.812Z,14.10
2022-09-21T14:20:07.829Z,13.90
2022-09-21T14:23:28.622Z,13.70
2022-09-21T14:26:35.041Z,13.60
2022-09-21T14:29:29.149Z,13.60
2022-09-21T14:32:21.247Z,13.60
2022-09-21T14:35:16.765Z,13.60
2022-09-21T14:38:13.342Z,13.50
2022-09-21T14:41:07.509Z,13.60
2022-09-21T14:43:58.682Z,13.60
2022-09-21T14:47:16.864Z,13.60
2022-09-21T14:50:19.689Z,13.60
2022-09-21T14:53:32.593Z,13.60
2022-09-21T14:56:41.067Z,13.60
2022-09-21T14:59:44.719Z,13.50
2022-09-21T15:02:35.882Z,13.50
2022-09-21T15:05:32.646Z,13.50
2022-09-21T15:09:01.990Z,13.60
2022-09-21T15:11:57.672Z,13.60
2022-09-21T15:14:52.624Z,13.60
2022-09-21T15:17:56.137Z,13.40
2022-09-21T15:21:00.196Z,13.40
2022-09-21T15:23:49.497Z,13.30
2022-09-21T15:26:40.954Z,13.30
2022-09-21T15:29:31.865Z,13.20
2022-09-21T15:32:34.151Z,13.10
2022-09-21T15:35:27.465Z,13.10
2022-09-21T15:38:28.629Z,13.00
2022-09-21T15:41:40.258Z,12.90
2022-09-21T15:44:34.480Z,12.90
2022-09-21T15:47:28.371Z,12.90
2022-09-21T15:50:20.300Z,12.90
2022-09-21T15:53:16.088Z,13.00
2022-09-21T15:56:04.826Z,13.00
2022-09-21T15:59:08.692Z,13.10
2022-09-21T16:01:59.518Z,13.10
2022-09-21T16:04:51.939Z,13.20
2022-09-21T16:07:40.994Z,13.30
2022-09-21T16:10:41.779Z,13.30
2022-09-21T16:13:51.194Z,13.30
2022-09-21T16:17:06.398Z,13.30
2022-09-21T16:20:19.674Z,13.20
2022-09-21T16:23:15.092Z,13.10
2022-09-21T16:26:03.819Z,13.00
2022-09-21T16:28:59.806Z,12.90
2022-09-21T16:31:50.583Z,12.90
2022-09-21T16:34:39.899Z,12.80
2022-09-21T16:37:30.565Z,12.70
2022-09-21T16:40:19.468Z,12.60
2022-09-21T16:43:10.364Z,12.50
2022-09-21T16:45:59.611Z,12.50
2022-09-21T16:48:50.301Z,12.50
2022-09-21T16:51:39.084Z,12.40
2022-09-21T16:54:29.875Z,12.40
2022-09-21T16:57:18.853Z,12.30
2022-09-21T17:00:12.300Z,12.30
2022-09-21T17:03:02.417Z,12.20
2022-09-21T17:05:51.118Z,12.00
2022-09-21T17:08:39.766Z,11.90
2022-09-21T17:11:30.020Z,11.80
2022-09-21T17:14:20.354Z,11.70
2022-09-21T17:17:14.390Z,11.50
2022-09-21T17:20:14.976Z,11.40
2022-09-21T17:23:04.407Z,11.40
2022-09-21T17:25:53.247Z,11.30
2022-09-21T17:28:44.270Z,11.20
2022-09-21T17:31:33.793Z,11.20
2022-09-21T17:34:24.150Z,11.10
2022-09-21T17:37:13.067Z,11.00
2022-09-21T17:40:04.032Z,10.90
2022-09-21T17:43:01.113Z,10.90
2022-09-21T17:45:57.689Z,10.80
2022-09-21T17:48:46.780Z,10.70
2022-09-21T17:51:53.082Z,10.60
2022-09-21T17:54:42.186Z,10.50
2022-09-21T17:57:42.799Z,10.50
2022-09-21T18:00:40.331Z,10.50
2022-09-21T18:03:32.655Z,10.50
2022-09-21T18:06:21.878Z,10.50
2022-09-21T18:09:13.045Z,10.40
2022-09-21T18:12:21.436Z,10.40
2022-09-21T18:15:17.576Z,10.30
2022-09-21T18:18:18.734Z,10.30
2022-09-21T18:21:17.976Z,10.30
2022-09-21T18:24:19.571Z,10.20
2022-09-21T18:27:11.748Z,10.20
2022-09-21T18:30:00.994Z,10.10
2022-09-21T18:32:59.873Z,10.10
2022-09-21T18:36:08.218Z,10.10
2022-09-21T18:39:12.767Z,10.10
2022-09-21T18:42:16.832Z,10.00
2022-09-21T18:45:12.155Z,10.00
2022-09-21T18:48:22.651Z,9.90
2022-09-21T18:51:22.430Z,9.90
2022-09-21T18:54:20.161Z,9.90
2022-09-21T18:57:13.726Z,9.80
2022-09-21T19:00:03.306Z,9.90
2022-09-21T19:03:15.302Z,9.80
2022-09-21T19:06:22.305Z,9.80
2022-09-21T19:09:21.736Z,9.80
2022-09-21T19:12:20.054Z,9.80
2022-09-21T19:15:17.329Z,9.80
2022-09-21T19:18:16.745Z,9.80
2022-09-21T19:21:21.507Z,9.70
2022-09-21T19:24:20.902Z,9.70
2022-09-21T19:27:27.972Z,9.60
2022-09-21T19:30:18.207Z,9.50
2022-09-21T19:33:45.546Z,9.40
2022-09-21T19:36:30.469Z,9.40
2022-09-21T19:39:21.171Z,9.40
2022-09-21T19:42:21.138Z,9.40
2022-09-21T19:45:18.244Z,9.30
2022-09-21T19:48:12.577Z,9.30
2022-09-21T19:51:01.534Z,9.40
2022-09-21T19:54:14.022Z,9.50
2022-09-21T19:57:30.362Z,9.70
2022-09-21T20:00:19.871Z,9.80
2022-09-21T20:03:15.414Z,9.90
2022-09-21T20:06:12.010Z,9.90
2022-09-21T20:09:07.884Z,9.90
2022-09-21T20:12:03.418Z,9.90
2022-09-21T20:14:57.292Z,9.80
2022-09-21T20:17:51.271Z,9.70
2022-09-21T20:20:42.198Z,9.70
2022-09-21T20:23:32.309Z,9.60
2022-09-21T20:26:24.928Z,9.60
2022-09-21T20:29:14.008Z,9.60
2022-09-21T20:32:04.223Z,9.60
2022-09-21T20:34:52.923Z,9.60
2022-09-21T20:37:41.572Z,9.50
2022-09-21T20:40:32.518Z,9.40
2022-09-21T20:43:23.200Z,9.40
2022-09-21T20:46:12.604Z,9.40
2022-09-21T20:49:08.614Z,9.30
2022-09-21T20:51:59.433Z,9.40
2022-09-21T20:54:49.496Z,9.40
2022-09-21T20:57:38.794Z,9.40
2022-09-21T21:00:27.726Z,9.40
2022-09-21T21:03:16.559Z,9.40
2022-09-21T21:06:11.848Z,9.50
2022-09-21T21:09:00.673Z,9.40
2022-09-21T21:11:49.368Z,9.30
2022-09-21T21:14:38.258Z,9.20
2022-09-21T21:17:27.161Z,9.40
2022-09-21T21:20:16.796Z,9.60
2022-09-21T21:23:08.230Z,9.90
2022-09-21T21:25:59.300Z,10.20
2022-09-21T21:28:47.981Z,10.30
2022-09-21T21:31:36.798Z,10.40
2022-09-21T21:34:25.587Z,10.40
2022-09-21T21:37:16.566Z,10.40
2022-09-21T21:40:08.057Z,10.30
2022-09-21T21:42:57.418Z,10.30
2022-09-21T21:45:53.546Z,10.20
2022-09-21T21:48:42.508Z,10.20
2022-09-21T21:51:31.406Z,10.20
2022-09-21T21:54:22.463Z,10.10
2022-09-21T21:57:13.846Z,10.10
2022-09-21T22:00:03.096Z,10.10
2022-09-21T22:02:51.782Z,10.00
2022-09-21T22:05:41.022Z,9.90
2022-09-21T22:08:30.593Z,9.80
2022-09-21T22:11:20.096Z,9.70
2022-09-21T22:14:11.682Z,9.70
2022-09-21T22:17:00.643Z,9.60
2022-09-21T22:19:49.590Z,9.60
2022-09-21T22:22:38.272Z,9.50
2022-09-21T22:25:27.051Z,9.50
2022-09-21T22:28:15.763Z,9.40
2022-09-21T22:31:10.356Z,9.30
2022-09-21T22:34:01.497Z,9.20
2022-09-21T22:36:50.800Z,9.20
2022-09-21T22:39:39.401Z,9.10
2022-09-21T22:42:28.052Z,9.00
2022-09-21T22:45:16.907Z,8.90
2022-09-21T22:48:07.102Z,8.70
2022-09-21T22:50:56.851Z,8.70
2022-09-21T22:53:46.013Z,8.60
2022-09-21T22:56:35.257Z,8.50
2022-09-21T22:59:23.954Z,8.40
2022-09-21T23:02:12.632Z,8.30
2022-09-21T23:05:03.050Z,8.10
2022-09-21T23:07:52.585Z,8.00
2022-09-21T23:10:41.271Z,7.90
2022-09-21T23:13:29.907Z,7.90
2022-09-21T23:16:19.809Z,7.80
2022-09-21T23:19:15.693Z,7.80
2022-09-21T23:22:06.755Z,7.80
2022-09-21T23:24:55.577Z,7.80
2022-09-21T23:27:44.355Z,7.80
2022-09-21T23:30:33.109Z,7.80
2022-09-21T23:33:21.833Z,8.00
2022-09-21T23:36:12.305Z,8.20
2022-09-21T23:39:02.498Z,8.20
2022-09-21T23:41:51.395Z,8.20
2022-09-21T23:44:40.050Z,8.10
2022-09-21T23:47:28.779Z,8.10
2022-09-21T23:50:17.522Z,8.10
2022-09-21T23:53:06.205Z,8.00
2022-09-21T23:55:57.645Z,7.90
2022-09-21T23:58:46.456Z,7.90
